Terminal Aerodrome Forecast
Issued by NWS Shreveport, LA

Home | Current Version | Previous Version | Text Only | Print | Product List | Glossary On
Versions: 1 2 3 4 5 6 7 8 9 10 11 12 13 14 15 16 17 18 19 20 21 22
000
FTUS44 KSHV 230500 RRA
TAFTXK
TAF
KTXK 230549Z 2306/2406 13008KT 3SM RA BR SCT015 BKN035 OVC045
      TEMPO 2306/2308 4SM -RA BR OVC010
     FM230800 14008KT 5SM -RA BR OVC008
     FM231000 16008KT 4SM -RA BR OVC007
      TEMPO 2311/2313 2SM -DZ BR OVC004
     FM231400 19008KT 5SM BR OVC010
     FM231700 21012G19KT P6SM OVC030
     FM231900 22015G22KT P6SM BKN035 BKN250
     FM232100 21014G20KT P6SM SCT250
     FM232300 22014G19KT P6SM SKC=

USA.gov is the U.S. government's official web portal to all federal, state and local government web resources and services.